Time;durP1;ratioP1;P1;durP2;ratioP2;P2;SDS_P1;SDS_P2;PMS_P1;PMS_P2;Temp;Humidity;BMP_temperature;BMP_pressure;BME280_temperature;BME280_humidity;BME280_pressure;Samples;Min_cycle;Max_cycle;Signal;HPM_P1;HPM_P2
2022/08/07 00:00:57;;;;;;;11.98;8.10;;;13.30;99.90;;;;;;4977975;28;20049;-57
2022/08/07 00:03:24;;;;;;;13.48;8.52;;;13.30;99.90;;;;;;4977432;28;20046;-58
2022/08/07 00:05:54;;;;;;;9.20;7.72;;;13.30;99.90;;;;;;4980591;28;20054;-57
2022/08/07 00:08:21;;;;;;;10.30;7.93;;;13.30;99.90;;;;;;4987072;28;20112;-57
2022/08/07 00:10:48;;;;;;;10.25;7.78;;;13.20;99.90;;;;;;4977960;28;20951;-57
2022/08/07 00:13:14;;;;;;;10.23;7.70;;;13.20;99.90;;;;;;4978694;28;20049;-54
2022/08/07 00:15:40;;;;;;;13.38;9.25;;;13.20;99.90;;;;;;4986867;28;20057;-58
2022/08/07 00:18:07;;;;;;;11.75;8.55;;;13.20;99.90;;;;;;4997468;28;20049;-57
2022/08/07 00:20:34;;;;;;;10.48;7.93;;;13.10;99.90;;;;;;4997123;28;20049;-57
2022/08/07 00:22:59;;;;;;;9.48;7.60;;;13.10;99.90;;;;;;4997697;28;20045;-57
2022/08/07 00:25:25;;;;;;;10.35;7.65;;;13.00;99.90;;;;;;4997852;28;20405;-57
2022/08/07 00:27:51;;;;;;;9.27;7.20;;;13.00;99.90;;;;;;4998163;28;20128;-57
2022/08/07 00:30:18;;;;;;;12.70;7.43;;;12.90;99.90;;;;;;4997148;28;20045;-57
2022/08/07 00:32:47;;;;;;;10.52;7.88;;;12.90;99.90;;;;;;4997609;28;20072;-57
2022/08/07 00:35:13;;;;;;;11.50;7.72;;;12.80;99.90;;;;;;4998279;28;20042;-57
2022/08/07 00:37:38;;;;;;;10.70;8.20;;;12.80;99.90;;;;;;4996907;28;20042;-57
2022/08/07 00:40:04;;;;;;;11.88;8.30;;;12.80;99.90;;;;;;4997950;28;20041;-58
2022/08/07 00:42:32;;;;;;;12.90;7.97;;;12.60;99.90;;;;;;4995906;28;20045;-58
2022/08/07 00:44:57;;;;;;;10.07;8.10;;;12.70;99.90;;;;;;4996332;28;20038;-56
2022/08/07 00:47:23;;;;;;;14.50;9.27;;;12.80;99.90;;;;;;4994695;28;20481;-57
2022/08/07 00:49:49;;;;;;;12.68;9.30;;;12.80;99.90;;;;;;4998076;28;20050;-59
2022/08/07 00:52:14;;;;;;;9.93;8.32;;;12.90;99.90;;;;;;4997983;28;20046;-57
2022/08/07 00:54:40;;;;;;;10.90;8.80;;;12.80;99.90;;;;;;4997726;28;20348;-58
2022/08/07 00:57:07;;;;;;;11.63;8.45;;;12.70;99.90;;;;;;5000543;28;20180;-57
2022/08/07 00:59:33;;;;;;;11.45;8.23;;;12.70;99.90;;;;;;5001246;28;20519;-58
2022/08/07 01:02:01;;;;;;;11.02;7.65;;;12.70;99.90;;;;;;5000242;28;20695;-57
2022/08/07 01:04:27;;;;;;;9.27;8.07;;;12.70;99.90;;;;;;5000457;28;20533;-58
2022/08/07 01:06:54;;;;;;;11.05;8.48;;;12.70;99.90;;;;;;4994040;28;20132;-56
2022/08/07 01:09:30;;;;;;;;;;;;;;;;;;;;;
2022/08/07 01:11:55;;;;;;;12.77;8.43;;;12.50;99.90;;;;;;5000713;22;20475;-57
2022/08/07 01:14:21;;;;;;;11.15;8.88;;;12.50;99.90;;;;;;5000003;28;20496;-57
2022/08/07 01:16:48;;;;;;;10.93;8.75;;;12.40;99.90;;;;;;4990155;28;20445;-59
2022/08/07 01:19:14;;;;;;;12.93;8.63;;;12.30;99.90;;;;;;4981569;28;20046;-56
2022/08/07 01:21:40;;;;;;;13.73;9.02;;;12.40;99.90;;;;;;4981448;28;20050;-58
2022/08/07 01:24:07;;;;;;;12.82;9.18;;;12.40;99.90;;;;;;4980647;28;20042;-54
2022/08/07 01:26:32;;;;;;;14.77;9.90;;;12.30;99.90;;;;;;4981051;28;20758;-58
2022/08/07 01:28:59;;;;;;;13.27;9.02;;;12.40;99.90;;;;;;4981096;28;20046;-57
2022/08/07 01:31:30;;;;;;;12.38;9.25;;;12.40;99.90;;;;;;4980140;28;20050;-57
2022/08/07 01:33:59;;;;;;;13.27;9.88;;;12.30;99.90;;;;;;4980630;28;20413;-57
2022/08/07 01:36:27;;;;;;;13.63;9.93;;;12.20;99.90;;;;;;4980752;28;20050;-58
2022/08/07 01:38:53;;;;;;;13.43;9.70;;;12.30;99.90;;;;;;4981594;28;20431;-57
2022/08/07 01:41:20;;;;;;;12.73;9.88;;;12.20;99.90;;;;;;4979112;28;20060;-57
2022/08/07 01:43:47;;;;;;;12.80;9.73;;;12.30;99.90;;;;;;4980976;28;20058;-57
2022/08/07 01:46:14;;;;;;;17.60;10.75;;;12.20;99.90;;;;;;4980089;28;20145;-57
2022/08/07 01:48:41;;;;;;;14.05;10.23;;;12.20;99.90;;;;;;4981106;28;20133;-57
2022/08/07 01:51:10;;;;;;;12.35;9.93;;;12.20;99.90;;;;;;4980236;28;20047;-57
2022/08/07 01:53:41;;;;;;;13.50;9.73;;;12.20;99.90;;;;;;4980254;28;20105;-57
2022/08/07 01:56:11;;;;;;;16.35;10.40;;;12.10;99.90;;;;;;4979521;28;20060;-54
2022/08/07 01:58:43;;;;;;;13.25;9.93;;;12.20;99.90;;;;;;4979730;28;20046;-57
2022/08/07 02:01:14;;;;;;;14.25;10.50;;;12.10;99.90;;;;;;4979915;28;20137;-56
2022/08/07 02:03:47;;;;;;;14.25;10.38;;;12.10;99.90;;;;;;4980563;28;20048;-57
2022/08/07 02:06:15;;;;;;;12.85;10.10;;;12.00;99.90;;;;;;4982311;28;20050;-57
2022/08/07 02:08:45;;;;;;;14.88;10.60;;;12.00;99.90;;;;;;4988592;28;20104;-57
2022/08/07 02:11:11;;;;;;;14.93;10.05;;;12.10;99.90;;;;;;4980200;28;20070;-56
2022/08/07 02:13:38;;;;;;;15.13;10.13;;;12.10;99.90;;;;;;4980158;28;20065;-57
2022/08/07 02:16:06;;;;;;;14.25;10.02;;;12.10;99.90;;;;;;4979100;28;20050;-57
2022/08/07 02:18:35;;;;;;;13.13;10.30;;;12.10;99.90;;;;;;4980219;28;20058;-57
2022/08/07 02:21:03;;;;;;;13.35;9.73;;;12.20;99.90;;;;;;4980109;28;20456;-57
2022/08/07 02:23:32;;;;;;;12.65;9.25;;;12.20;99.90;;;;;;4977624;28;20077;-57
2022/08/07 02:26:00;;;;;;;11.63;9.25;;;12.10;99.90;;;;;;4980199;28;20038;-57
2022/08/07 02:28:28;;;;;;;13.38;9.73;;;12.10;99.90;;;;;;4979766;28;20262;-56
2022/08/07 02:30:55;;;;;;;11.93;9.38;;;12.00;99.90;;;;;;4979884;28;20047;-57
2022/08/07 02:33:24;;;;;;;14.73;10.38;;;11.90;99.90;;;;;;4978293;28;20117;-57
2022/08/07 02:35:51;;;;;;;14.93;10.27;;;11.90;99.90;;;;;;4979840;28;20133;-57
2022/08/07 02:38:18;;;;;;;16.05;10.02;;;11.90;99.90;;;;;;4979248;28;20115;-54
2022/08/07 02:40:45;;;;;;;13.90;10.20;;;12.00;99.90;;;;;;4979866;28;20090;-57
2022/08/07 02:43:13;;;;;;;12.90;9.75;;;12.00;99.90;;;;;;4980205;28;20129;-56
2022/08/07 02:45:41;;;;;;;14.23;10.07;;;12.00;99.90;;;;;;4979337;28;20114;-57
2022/08/07 02:48:08;;;;;;;14.20;10.27;;;12.00;99.90;;;;;;4979084;28;20077;-56
2022/08/07 02:50:41;;;;;;;12.75;9.95;;;12.10;99.90;;;;;;4978721;28;20567;-58
2022/08/07 02:53:10;;;;;;;12.98;9.93;;;12.10;99.90;;;;;;4979599;28;20956;-52
2022/08/07 02:55:42;;;;;;;11.07;9.50;;;11.90;99.90;;;;;;4979477;28;20053;-57
2022/08/07 02:58:12;;;;;;;11.75;10.13;;;11.90;99.90;;;;;;4978636;28;20081;-58
2022/08/07 03:00:40;;;;;;;14.57;10.73;;;11.80;99.90;;;;;;4979386;28;20085;-57
2022/08/07 03:03:08;;;;;;;13.38;9.90;;;11.80;99.90;;;;;;4978873;28;20054;-58
2022/08/07 03:05:35;;;;;;;15.75;10.82;;;11.80;99.90;;;;;;4979101;28;20060;-57
2022/08/07 03:08:03;;;;;;;13.10;10.15;;;11.80;99.90;;;;;;4988104;28;20050;-57
2022/08/07 03:10:31;;;;;;;14.20;11.05;;;11.80;99.90;;;;;;4978730;28;20058;-57
2022/08/07 03:12:57;;;;;;;12.55;10.02;;;11.80;99.90;;;;;;4977971;28;20054;-56
2022/08/07 03:15:23;;;;;;;15.27;10.23;;;11.80;99.90;;;;;;4976937;28;20045;-57
2022/08/07 03:17:50;;;;;;;13.77;10.63;;;11.80;99.90;;;;;;4978726;28;20070;-57
2022/08/07 03:20:16;;;;;;;14.73;10.32;;;11.80;99.90;;;;;;4979021;28;20891;-55
2022/08/07 03:22:43;;;;;;;14.10;10.77;;;11.80;99.90;;;;;;4979513;28;20081;-57
2022/08/07 03:25:09;;;;;;;15.38;11.68;;;11.80;99.90;;;;;;4978503;28;20057;-57
2022/08/07 03:27:35;;;;;;;14.65;11.30;;;11.70;99.90;;;;;;4978968;28;20396;-58
2022/08/07 03:30:01;;;;;;;16.27;11.00;;;11.70;99.90;;;;;;4978827;28;20773;-57
2022/08/07 03:32:34;;;;;;;12.52;10.77;;;11.70;99.90;;;;;;4977790;28;20050;-57
2022/08/07 03:35:04;;;;;;;13.07;10.50;;;11.70;99.90;;;;;;4979122;28;20037;-59
2022/08/07 03:37:33;;;;;;;15.25;11.45;;;11.60;99.90;;;;;;4978679;28;20449;-58
2022/08/07 03:39:59;;;;;;;12.88;10.68;;;11.70;99.90;;;;;;4978929;28;20125;-58
2022/08/07 03:42:26;;;;;;;15.23;11.40;;;11.70;99.90;;;;;;4977706;28;20049;-57
2022/08/07 03:44:51;;;;;;;14.48;10.98;;;11.70;99.90;;;;;;4978628;28;20058;-56
2022/08/07 03:47:18;;;;;;;14.10;11.55;;;11.70;99.90;;;;;;4977622;28;20038;-57
2022/08/07 03:49:44;;;;;;;13.77;11.02;;;11.80;99.90;;;;;;4979511;28;20046;-57
2022/08/07 03:52:11;;;;;;;15.23;11.85;;;11.60;99.90;;;;;;4978011;28;20180;-57
2022/08/07 03:54:37;;;;;;;14.98;10.93;;;11.70;99.90;;;;;;4978827;28;20054;-57
2022/08/07 03:57:04;;;;;;;16.65;11.30;;;11.60;99.90;;;;;;4979224;28;20051;-57
2022/08/07 03:59:31;;;;;;;12.88;10.80;;;11.60;99.90;;;;;;4977947;28;20046;-57
2022/08/07 04:01:57;;;;;;;12.68;9.95;;;11.60;99.90;;;;;;4977442;28;20053;-57
2022/08/07 04:04:23;;;;;;;13.43;10.48;;;11.50;99.90;;;;;;4978303;28;20400;-57
2022/08/07 04:06:50;;;;;;;15.55;10.85;;;11.60;99.90;;;;;;4985109;28;20042;-57
2022/08/07 04:09:16;;;;;;;12.77;10.82;;;11.70;99.90;;;;;;4983046;28;20045;-57
2022/08/07 04:11:47;;;;;;;14.15;11.07;;;11.70;99.90;;;;;;4978514;28;20413;-56
2022/08/07 04:14:13;;;;;;;14.55;10.63;;;11.70;99.90;;;;;;4978698;28;20054;-57
2022/08/07 04:16:39;;;;;;;14.70;10.82;;;11.70;99.90;;;;;;4977877;28;20038;-57
2022/08/07 04:19:07;;;;;;;13.38;10.85;;;11.70;99.90;;;;;;4977838;28;20613;-55
2022/08/07 04:21:33;;;;;;;13.25;11.02;;;11.70;99.90;;;;;;4978070;28;20046;-57
2022/08/07 04:24:00;;;;;;;16.08;10.15;;;11.80;99.90;;;;;;4978273;28;20046;-57
2022/08/07 04:26:26;;;;;;;15.35;11.35;;;11.70;99.90;;;;;;4978378;28;20092;-58
2022/08/07 04:28:51;;;;;;;14.07;11.05;;;11.60;99.90;;;;;;4978114;28;20481;-57
2022/08/07 04:31:17;;;;;;;13.88;11.27;;;11.70;99.90;;;;;;4979600;28;20038;-56
2022/08/07 04:33:45;;;;;;;13.48;10.73;;;11.70;99.90;;;;;;4982721;28;20057;-58
2022/08/07 04:36:13;;;;;;;13.60;10.80;;;11.70;99.90;;;;;;4982217;28;20109;-57
2022/08/07 04:38:39;;;;;;;13.27;10.32;;;11.70;99.90;;;;;;4979474;28;20046;-58
2022/08/07 04:41:05;;;;;;;15.52;10.95;;;11.70;99.90;;;;;;4981990;28;20050;-58
2022/08/07 04:43:36;;;;;;;13.68;10.25;;;11.80;99.90;;;;;;4981424;28;20782;-57
2022/08/07 04:46:10;;;;;;;13.00;9.90;;;11.80;99.90;;;;;;4980613;28;20050;-58
2022/08/07 04:48:53;;;;;;;11.25;9.80;;;11.90;99.90;;;;;;4981903;28;20303;-57
2022/08/07 04:51:49;;;;;;;12.60;9.93;;;12.10;99.90;;;;;;4981729;28;20050;-57
2022/08/07 04:54:39;;;;;;;11.82;9.93;;;12.30;99.90;;;;;;4982293;28;20736;-57
2022/08/07 04:57:29;;;;;;;15.80;12.00;;;12.50;99.90;;;;;;4981469;28;20054;-58
2022/08/07 05:00:12;;;;;;;14.77;11.73;;;12.70;99.90;;;;;;4982035;28;20428;-57
2022/08/07 05:02:53;;;;;;;19.15;11.82;;;13.10;99.90;;;;;;4980731;28;20078;-58
2022/08/07 05:05:39;;;;;;;14.55;11.70;;;13.50;99.90;;;;;;4981235;28;20046;-57
2022/08/07 05:08:19;;;;;;;14.43;11.32;;;13.00;99.90;;;;;;4990883;28;20735;-57
2022/08/07 05:10:54;;;;;;;14.20;11.20;;;12.90;99.90;;;;;;5001210;28;20635;-57
2022/08/07 05:13:27;;;;;;;14.68;10.95;;;13.50;99.90;;;;;;5000850;28;20042;-58
2022/08/07 05:15:53;;;;;;;13.55;10.20;;;13.50;99.90;;;;;;5000736;28;20045;-58
2022/08/07 05:18:44;;;;;;;11.80;10.02;;;13.40;99.90;;;;;;5000652;28;20046;-57
2022/08/07 05:21:12;;;;;;;14.35;10.73;;;13.80;99.90;;;;;;5001309;28;20042;-57
2022/08/07 05:23:44;;;;;;;11.88;9.85;;;14.20;99.90;;;;;;5000776;28;20116;-57
2022/08/07 05:26:15;;;;;;;14.93;11.63;;;14.20;99.90;;;;;;5000140;28;20053;-57
2022/08/07 05:28:41;;;;;;;14.38;10.75;;;14.60;99.90;;;;;;5000873;28;20132;-58
2022/08/07 05:31:09;;;;;;;12.23;9.95;;;14.60;99.90;;;;;;4999683;28;20053;-56
2022/08/07 05:33:37;;;;;;;12.85;10.75;;;14.70;99.90;;;;;;4998405;28;20100;-58
2022/08/07 05:36:06;;;;;;;12.27;10.20;;;14.70;99.90;;;;;;5000532;28;20574;-59
2022/08/07 05:38:33;;;;;;;16.08;10.07;;;15.30;99.90;;;;;;4999342;28;20140;-57
2022/08/07 05:41:00;;;;;;;14.07;9.95;;;15.70;99.90;;;;;;5000631;28;20132;-57
2022/08/07 05:43:25;;;;;;;12.70;9.65;;;15.90;99.90;;;;;;4998499;28;20103;-57
2022/08/07 05:45:51;;;;;;;11.98;9.40;;;16.10;99.90;;;;;;4999521;28;20496;-57
2022/08/07 05:48:18;;;;;;;11.20;9.18;;;16.50;99.90;;;;;;4998739;28;20412;-55
2022/08/07 05:50:45;;;;;;;12.60;9.00;;;16.30;99.90;;;;;;5000814;28;20056;-57
2022/08/07 05:53:10;;;;;;;12.10;9.48;;;16.40;99.90;;;;;;4999941;28;20054;-57
2022/08/07 05:55:37;;;;;;;11.57;9.60;;;16.30;99.90;;;;;;4999935;28;20120;-58
2022/08/07 05:58:04;;;;;;;12.52;8.82;;;16.60;99.90;;;;;;5000172;28;20046;-57
2022/08/07 06:00:33;;;;;;;12.20;9.07;;;16.80;99.90;;;;;;4999068;28;20041;-58
2022/08/07 06:03:00;;;;;;;10.38;8.60;;;17.10;99.90;;;;;;5000387;28;20058;-57
2022/08/07 06:05:27;;;;;;;10.40;8.25;;;17.50;99.90;;;;;;4999088;28;20704;-58
2022/08/07 06:07:55;;;;;;;10.52;8.65;;;17.70;99.90;;;;;;4991358;28;20129;-57
2022/08/07 06:10:21;;;;;;;12.27;8.95;;;17.90;99.90;;;;;;4979258;28;20505;-57
2022/08/07 06:12:47;;;;;;;10.02;8.38;;;18.20;99.90;;;;;;4980342;28;20421;-57
2022/08/07 06:15:14;;;;;;;10.23;7.75;;;18.40;99.90;;;;;;4980851;28;20469;-57
2022/08/07 06:17:42;;;;;;;10.27;8.00;;;18.20;99.90;;;;;;4978626;28;20050;-57
2022/08/07 06:20:09;;;;;;;10.45;7.97;;;18.00;99.90;;;;;;4979556;28;20125;-57
2022/08/07 06:22:36;;;;;;;11.73;8.55;;;18.40;99.90;;;;;;4979796;28;20046;-58
2022/08/07 06:25:02;;;;;;;10.45;8.15;;;18.50;99.90;;;;;;4980289;28;20081;-59
2022/08/07 06:27:28;;;;;;;10.57;7.88;;;18.00;99.90;;;;;;4979892;28;20125;-57
2022/08/07 06:29:54;;;;;;;10.27;7.78;;;17.90;99.90;;;;;;4979690;28;20093;-57
2022/08/07 06:32:19;;;;;;;11.02;7.95;;;18.40;99.90;;;;;;4979049;28;20124;-57
2022/08/07 06:34:45;;;;;;;9.57;7.88;;;18.70;99.90;;;;;;4980436;28;20489;-58
2022/08/07 06:37:11;;;;;;;12.55;7.35;;;18.70;99.90;;;;;;4980394;28;20057;-57
2022/08/07 06:39:37;;;;;;;8.70;7.43;;;18.90;99.90;;;;;;4978992;28;20049;-58
2022/08/07 06:42:14;;;;;;;9.85;7.80;;;19.00;99.90;;;;;;4979807;28;20046;-57
2022/08/07 06:44:41;;;;;;;10.43;7.70;;;19.00;99.90;;;;;;4979702;28;20468;-57
2022/08/07 06:47:07;;;;;;;8.73;6.93;;;18.80;99.90;;;;;;4976979;28;20049;-57
2022/08/07 06:49:32;;;;;;;10.20;7.75;;;19.10;99.90;;;;;;4979552;28;20046;-58
2022/08/07 06:52:00;;;;;;;8.95;7.07;;;19.50;99.90;;;;;;4994636;28;20275;-57
2022/08/07 06:54:26;;;;;;;9.60;7.90;;;19.10;99.90;;;;;;4979098;28;20068;-57
2022/08/07 06:56:58;;;;;;;10.13;7.68;;;19.30;99.90;;;;;;4994258;28;20050;-57
2022/08/07 06:59:26;;;;;;;11.65;7.75;;;19.20;99.90;;;;;;4979099;28;20038;-57
2022/08/07 07:01:53;;;;;;;11.75;6.75;;;19.20;99.90;;;;;;4979220;28;20533;-57
2022/08/07 07:04:19;;;;;;;8.68;6.32;;;18.90;99.90;;;;;;4978019;28;20038;-57
2022/08/07 07:06:44;;;;;;;10.73;6.53;;;19.10;99.90;;;;;;4985422;28;20049;-59
2022/08/07 07:09:21;;;;;;;8.88;6.20;;;19.20;99.90;;;;;;4984737;28;20061;-57
2022/08/07 07:12:02;;;;;;;8.80;6.07;;;19.20;99.90;;;;;;4979090;28;20066;-57
2022/08/07 07:14:33;;;;;;;8.45;6.55;;;19.20;99.90;;;;;;4978982;28;20047;-58
2022/08/07 07:17:05;;;;;;;9.10;6.10;;;18.70;99.90;;;;;;4978898;28;20049;-57
2022/08/07 07:19:40;;;;;;;7.97;6.50;;;18.50;99.90;;;;;;4977972;28;20060;-58
2022/08/07 07:22:08;;;;;;;7.93;6.22;;;18.70;99.90;;;;;;4979271;28;20097;-58
2022/08/07 07:24:34;;;;;;;8.23;6.47;;;19.10;99.90;;;;;;4979108;28;20049;-58
2022/08/07 07:27:03;;;;;;;9.20;6.15;;;19.30;99.90;;;;;;4977024;28;20054;-58
2022/08/07 07:29:34;;;;;;;6.60;5.82;;;18.90;99.90;;;;;;4978925;28;20050;-59
2022/08/07 07:32:04;;;;;;;9.23;5.72;;;19.00;99.90;;;;;;4978107;28;20053;-58
2022/08/07 07:34:31;;;;;;;7.60;5.00;;;19.00;99.90;;;;;;4977964;28;20042;-58
2022/08/07 07:37:00;;;;;;;6.38;4.50;;;19.30;99.90;;;;;;4978928;28;20465;-58
2022/08/07 07:39:28;;;;;;;6.70;3.60;;;18.90;99.90;;;;;;4978788;28;20458;-58
2022/08/07 07:41:55;;;;;;;5.35;3.60;;;18.90;99.90;;;;;;4978637;28;20108;-57
2022/08/07 07:44:23;;;;;;;6.05;4.47;;;18.80;99.90;;;;;;4977374;28;20050;-58
2022/08/07 07:46:50;;;;;;;4.97;3.70;;;18.80;99.90;;;;;;4978310;28;20046;-57
2022/08/07 07:49:18;;;;;;;4.68;3.42;;;18.80;99.90;;;;;;4978725;28;20057;-57
2022/08/07 07:51:47;;;;;;;5.57;3.20;;;19.10;99.90;;;;;;4978985;28;20560;-57
2022/08/07 07:54:15;;;;;;;3.80;2.70;;;19.20;99.90;;;;;;4977945;28;20046;-57
2022/08/07 07:56:43;;;;;;;5.00;3.65;;;19.20;99.90;;;;;;4978917;28;20843;-57
2022/08/07 07:59:11;;;;;;;4.40;3.45;;;19.30;99.90;;;;;;4978424;28;20038;-58
2022/08/07 08:01:42;;;;;;;4.43;2.08;;;19.10;99.90;;;;;;4977350;28;20187;-58
2022/08/07 08:04:08;;;;;;;4.72;2.22;;;19.80;99.90;;;;;;4979750;28;20043;-56
2022/08/07 08:06:34;;;;;;;4.05;2.58;;;19.80;99.90;;;;;;4986784;28;20050;-58
2022/08/07 08:09:04;;;;;;;4.63;2.50;;;19.70;99.90;;;;;;4990805;28;20500;-57
2022/08/07 08:11:30;;;;;;;6.03;2.60;;;19.80;99.90;;;;;;4982713;28;20077;-57
2022/08/07 08:13:56;;;;;;;3.78;2.60;;;19.90;99.90;;;;;;4982312;28;20397;-58
2022/08/07 08:16:27;;;;;;;3.15;2.50;;;19.90;99.90;;;;;;4981772;28;20137;-57
2022/08/07 08:18:55;;;;;;;2.97;2.35;;;19.80;99.90;;;;;;4981483;28;20061;-57
2022/08/07 08:27:07;;;;;;;4.13;3.15;;;19.70;99.90;;;;;;4983301;28;20050;-57
2022/08/07 08:29:39;;;;;;;6.15;3.65;;;19.70;99.90;;;;;;4982594;28;20043;-58
2022/08/07 08:32:08;;;;;;;4.50;2.90;;;20.00;99.90;;;;;;4982919;28;20081;-58
2022/08/07 08:34:37;;;;;;;5.28;3.30;;;20.10;99.90;;;;;;4983232;28;20108;-58
2022/08/07 08:37:05;;;;;;;4.57;3.13;;;20.00;99.90;;;;;;4983072;28;20129;-58
2022/08/07 08:39:32;;;;;;;6.70;3.40;;;20.30;99.90;;;;;;4983102;28;20054;-57
2022/08/07 08:42:06;;;;;;;4.72;3.08;;;20.30;99.90;;;;;;4982973;28;20092;-57
2022/08/07 08:44:41;;;;;;;5.50;2.97;;;20.00;99.90;;;;;;4985409;28;20053;-58
2022/08/07 08:47:25;;;;;;;6.38;3.10;;;20.40;99.90;;;;;;5000008;28;20046;-57
2022/08/07 08:50:22;;;;;;;4.35;2.90;;;20.50;99.90;;;;;;4991579;28;20496;-58
2022/08/07 08:53:08;;;;;;;4.97;2.80;;;20.40;99.90;;;;;;5001609;28;20054;-58
2022/08/07 08:55:43;;;;;;;5.55;3.30;;;20.40;99.90;;;;;;5001402;28;20089;-58
2022/08/07 08:58:27;;;;;;;4.70;3.10;;;20.40;99.90;;;;;;5002577;28;20029;-58
2022/08/07 09:01:07;;;;;;;5.28;3.40;;;20.60;99.90;;;;;;5000825;28;20050;-58
2022/08/07 09:03:47;;;;;;;5.80;2.70;;;21.00;99.90;;;;;;5002208;28;20057;-55
2022/08/07 09:06:38;;;;;;;3.83;2.50;;;21.00;99.90;;;;;;4996567;28;20405;-57
2022/08/07 09:09:22;;;;;;;3.17;2.03;;;20.90;99.90;;;;;;4982634;28;20053;-56
2022/08/07 09:12:18;;;;;;;3.50;2.10;;;20.40;99.90;;;;;;4980626;28;20464;-57
2022/08/07 09:15:10;;;;;;;4.43;2.58;;;20.60;99.90;;;;;;4965498;28;20097;-58
2022/08/07 09:17:57;;;;;;;5.18;3.10;;;20.90;99.90;;;;;;4982131;28;20129;-58
2022/08/07 09:21:01;;;;;;;4.53;2.72;;;21.70;99.90;;;;;;4981419;28;20057;-58
2022/08/07 09:23:29;;;;;;;4.25;2.55;;;21.70;99.90;;;;;;4981160;28;20050;-58
2022/08/07 09:26:24;;;;;;;5.07;2.50;;;22.10;99.90;;;;;;4983353;28;20084;-58
2022/08/07 09:28:58;;;;;;;4.07;2.30;;;21.90;99.90;;;;;;4980475;28;20109;-58
2022/08/07 09:31:44;;;;;;;3.85;2.70;;;21.50;99.90;;;;;;4981700;28;20126;-58
2022/08/07 09:34:24;;;;;;;4.07;2.53;;;21.90;99.90;;;;;;5001331;28;20054;-57
2022/08/07 09:37:08;;;;;;;3.10;2.33;;;21.50;99.90;;;;;;5001242;28;20054;-57
2022/08/07 09:39:50;;;;;;;3.05;2.38;;;21.90;99.90;;;;;;5001623;28;20045;-57
2022/08/07 09:42:40;;;;;;;3.63;2.35;;;22.30;99.90;;;;;;5001537;28;20588;-57
2022/08/07 09:45:28;;;;;;;3.63;2.60;;;22.40;99.90;;;;;;4999491;28;20034;-57
2022/08/07 09:48:02;;;;;;;3.83;2.22;;;22.80;99.90;;;;;;5000891;28;20688;-58
2022/08/07 09:50:50;;;;;;;3.40;2.50;;;22.60;99.90;;;;;;4999612;28;20041;-58
2022/08/07 09:53:18;;;;;;;4.57;2.70;;;22.50;99.90;;;;;;5001035;28;20054;-57
2022/08/07 09:55:53;;;;;;;4.47;2.50;;;22.80;99.90;;;;;;5000914;28;20134;-57
2022/08/07 09:58:46;;;;;;;4.15;2.53;;;23.10;99.90;;;;;;5000523;28;20042;-57
2022/08/07 10:01:33;;;;;;;3.35;2.40;;;23.20;99.90;;;;;;4998571;28;20126;-59
2022/08/07 10:04:32;;;;;;;3.42;2.47;;;23.40;99.90;;;;;;5000346;28;20042;-57
2022/08/07 10:07:17;;;;;;;4.63;2.60;;;22.80;99.90;;;;;;4993933;28;20899;-58
2022/08/07 10:10:05;;;;;;;3.33;1.90;;;22.30;99.90;;;;;;4970463;28;20057;-57
2022/08/07 10:12:57;;;;;;;2.50;1.90;;;22.50;99.90;;;;;;4979594;28;20104;-57
2022/08/07 10:15:53;;;;;;;3.08;1.90;;;22.60;99.90;;;;;;4979146;28;20057;-58
2022/08/07 10:18:57;;;;;;;3.35;1.70;;;23.40;99.90;;;;;;4979894;28;20585;-58
2022/08/07 10:21:41;;;;;;;3.13;2.08;;;23.10;99.90;;;;;;4980281;28;20133;-58
2022/08/07 10:24:25;;;;;;;3.53;2.30;;;23.30;99.90;;;;;;4980563;28;20054;-57
2022/08/07 10:27:07;;;;;;;3.05;2.10;;;23.70;99.90;;;;;;4995648;28;20425;-57
2022/08/07 10:29:43;;;;;;;3.35;2.08;;;23.80;99.90;;;;;;4980121;28;20140;-59
2022/08/07 10:32:27;;;;;;;2.92;2.10;;;23.10;99.90;;;;;;4980146;28;20050;-57
2022/08/07 10:35:19;;;;;;;3.08;2.13;;;23.30;99.90;;;;;;4980014;28;20492;-57
2022/08/07 10:38:06;;;;;;;3.15;2.10;;;23.10;99.90;;;;;;4980603;28;20046;-57
2022/08/07 10:41:01;;;;;;;5.10;2.13;;;23.70;99.90;;;;;;4978726;28;20132;-57
2022/08/07 10:43:34;;;;;;;3.13;1.90;;;24.40;99.90;;;;;;4978918;28;20164;-56
2022/08/07 10:46:08;;;;;;;4.13;2.00;;;24.40;99.90;;;;;;4978780;28;20646;-57
2022/08/07 10:48:56;;;;;;;4.50;1.90;;;24.50;99.90;;;;;;4979909;28;20508;-57
2022/08/07 10:51:35;;;;;;;3.63;1.88;;;24.00;99.90;;;;;;4979604;28;20065;-57
2022/08/07 10:54:32;;;;;;;3.20;1.83;;;24.20;99.90;;;;;;4980103;28;20085;-57
2022/08/07 10:57:11;;;;;;;2.53;1.70;;;24.10;99.90;;;;;;4971738;28;20429;-57
2022/08/07 10:59:52;;;;;;;4.30;2.20;;;23.90;99.90;;;;;;4978818;28;20054;-56
2022/08/07 11:02:36;;;;;;;2.67;1.85;;;23.60;99.90;;;;;;4979922;28;20200;-56
2022/08/07 11:05:39;;;;;;;5.25;2.00;;;23.30;99.90;;;;;;4979217;28;20046;-56
2022/08/07 11:08:18;;;;;;;2.92;2.08;;;23.60;99.90;;;;;;4987290;28;20054;-57
2022/08/07 11:11:12;;;;;;;3.22;1.90;;;23.30;99.90;;;;;;4979477;28;20457;-60
2022/08/07 11:13:45;;;;;;;3.33;2.30;;;23.00;99.90;;;;;;4979142;28;20050;-57
2022/08/07 11:16:26;;;;;;;4.55;2.20;;;23.00;99.90;;;;;;4978785;28;20494;-57
2022/08/07 11:19:08;;;;;;;4.80;2.10;;;23.80;99.90;;;;;;4977233;28;20060;-57
2022/08/07 11:21:59;;;;;;;3.72;1.90;;;24.90;99.90;;;;;;4979246;28;20425;-57
2022/08/07 11:24:36;;;;;;;3.05;1.85;;;25.10;99.90;;;;;;4978399;28;20141;-56
2022/08/07 11:27:22;;;;;;;4.15;1.75;;;25.10;99.90;;;;;;4979112;28;20393;-57
2022/08/07 11:30:08;;;;;;;3.13;1.75;;;25.20;99.90;;;;;;4976791;28;20174;-57
2022/08/07 11:32:42;;;;;;;2.20;1.50;;;25.40;99.90;;;;;;4978977;28;20043;-57
2022/08/07 11:35:14;;;;;;;2.40;1.75;;;25.90;99.90;;;;;;4978647;28;20050;-58
2022/08/07 11:38:24;;;;;;;5.82;1.90;;;24.70;99.90;;;;;;4979574;28;20042;-57
2022/08/07 11:41:17;;;;;;;2.97;1.90;;;24.70;99.90;;;;;;4955852;28;20613;-56
2022/08/07 11:44:15;;;;;;;3.28;1.83;;;24.00;99.90;;;;;;4978352;28;20061;-58
2022/08/07 11:47:07;;;;;;;2.78;1.70;;;24.00;99.90;;;;;;4978054;28;20465;-57
2022/08/07 11:49:59;;;;;;;3.13;2.03;;;23.60;99.90;;;;;;4978782;28;20662;-58
2022/08/07 11:52:50;;;;;;;2.72;1.85;;;24.10;99.90;;;;;;4978144;28;20077;-57
2022/08/07 11:55:39;;;;;;;4.45;1.73;;;24.10;99.90;;;;;;4978882;28;20057;-57
2022/08/07 11:58:41;;;;;;;4.78;2.55;;;24.10;99.90;;;;;;4978314;28;20054;-57
2022/08/07 12:01:59;;;;;;;2.28;1.48;;;24.10;99.90;;;;;;4977291;28;20050;-55
2022/08/07 12:05:10;;;;;;;4.45;1.80;;;24.10;99.90;;;;;;5003872;28;20050;-57
2022/08/07 12:07:52;;;;;;;3.22;1.90;;;24.80;99.90;;;;;;4983913;28;20062;-58
2022/08/07 12:10:22;;;;;;;2.35;1.65;;;24.80;99.90;;;;;;4997372;28;20104;-56
2022/08/07 12:12:59;;;;;;;3.17;1.73;;;24.20;99.90;;;;;;4997363;28;20652;-57
2022/08/07 12:15:31;;;;;;;2.80;1.77;;;25.20;99.90;;;;;;4997296;28;20037;-57
2022/08/07 12:18:18;;;;;;;2.45;1.63;;;24.80;99.40;;;;;;4997860;28;20074;-57
2022/08/07 12:21:27;;;;;;;2.55;1.48;;;24.40;99.30;;;;;;4998837;28;20141;-57
2022/08/07 12:23:58;;;;;;;3.00;1.83;;;24.40;99.50;;;;;;4997208;28;20464;-57
2022/08/07 12:26:58;;;;;;;2.85;1.55;;;24.60;99.90;;;;;;4997655;28;20052;-57
2022/08/07 12:29:23;;;;;;;3.28;1.60;;;24.50;99.50;;;;;;4998367;28;20674;-58
2022/08/07 12:32:00;;;;;;;2.05;1.40;;;24.40;99.90;;;;;;4997989;28;20216;-57
2022/08/07 12:34:30;;;;;;;3.15;1.77;;;24.70;99.90;;;;;;4988760;28;20049;-58
2022/08/07 12:36:56;;;;;;;4.25;1.77;;;24.80;99.80;;;;;;4997557;28;20511;-58
2022/08/07 12:39:24;;;;;;;2.00;1.40;;;25.60;99.90;;;;;;4996694;28;20129;-58
2022/08/07 12:41:52;;;;;;;4.65;1.60;;;26.00;99.90;;;;;;4998277;28;20109;-58
2022/08/07 12:44:19;;;;;;;4.00;1.42;;;25.30;98.60;;;;;;4997129;28;20535;-58
2022/08/07 12:47:22;;;;;;;1.85;1.27;;;25.90;99.40;;;;;;4996574;28;20393;-59
2022/08/07 12:50:09;;;;;;;2.35;1.30;;;26.00;99.40;;;;;;4998176;28;20064;-58
2022/08/07 12:52:49;;;;;;;3.08;1.50;;;26.00;99.30;;;;;;4999151;28;20137;-57
2022/08/07 12:55:40;;;;;;;2.70;1.50;;;26.00;98.40;;;;;;5001310;28;20041;-58
2022/08/07 12:58:11;;;;;;;2.97;1.73;;;26.10;98.80;;;;;;5000642;28;20149;-57
2022/08/07 13:00:53;;;;;;;2.72;1.70;;;26.60;99.30;;;;;;5000583;28;20057;-58
2022/08/07 13:03:25;;;;;;;3.95;1.58;;;26.30;99.30;;;;;;5001338;28;20085;-58
2022/08/07 13:06:18;;;;;;;2.70;1.80;;;25.70;99.10;;;;;;4999566;28;20035;-57
2022/08/07 13:08:54;;;;;;;2.38;1.60;;;25.90;99.20;;;;;;4991355;28;20125;-58
2022/08/07 13:11:45;;;;;;;3.40;1.50;;;25.70;99.90;;;;;;4984107;28;20061;-58
2022/08/07 13:14:28;;;;;;;4.90;1.70;;;25.60;98.90;;;;;;4989154;28;20053;-57
2022/08/07 13:17:04;;;;;;;3.00;1.73;;;25.80;99.80;;;;;;4988764;28;20038;-57
2022/08/07 13:19:49;;;;;;;4.10;1.73;;;25.30;98.50;;;;;;4989229;28;20030;-57